sensor_id;sensor_type;location;lat;lon;timestamp;P1;durP1;ratioP1;P2;durP2;ratioP2
77109;SDS011;66062;52.464;16.922;2024-01-30T00:01:11;39.03;;;16.90;;
77109;SDS011;66062;52.464;16.922;2024-01-30T00:03:37;42.72;;;18.60;;
77109;SDS011;66062;52.464;16.922;2024-01-30T00:06:03;43.95;;;18.35;;
77109;SDS011;66062;52.464;16.922;2024-01-30T00:08:29;38.55;;;16.75;;
77109;SDS011;66062;52.464;16.922;2024-01-30T00:10:54;39.95;;;17.88;;
77109;SDS011;66062;52.464;16.922;2024-01-30T00:13:20;41.30;;;17.70;;
77109;SDS011;66062;52.464;16.922;2024-01-30T00:15:45;39.25;;;17.23;;
77109;SDS011;66062;52.464;16.922;2024-01-30T00:18:11;39.80;;;16.80;;
77109;SDS011;66062;52.464;16.922;2024-01-30T00:20:36;34.67;;;17.27;;
77109;SDS011;66062;52.464;16.922;2024-01-30T00:23:02;36.35;;;17.20;;
77109;SDS011;66062;52.464;16.922;2024-01-30T00:25:27;39.72;;;17.23;;
77109;SDS011;66062;52.464;16.922;2024-01-30T00:27:53;39.58;;;17.98;;
77109;SDS011;66062;52.464;16.922;2024-01-30T00:30:18;44.25;;;17.98;;
77109;SDS011;66062;52.464;16.922;2024-01-30T00:32:44;40.13;;;17.65;;
77109;SDS011;66062;52.464;16.922;2024-01-30T00:35:10;42.17;;;18.50;;
77109;SDS011;66062;52.464;16.922;2024-01-30T00:37:36;36.67;;;16.40;;
77109;SDS011;66062;52.464;16.922;2024-01-30T00:40:01;37.30;;;17.48;;
77109;SDS011;66062;52.464;16.922;2024-01-30T00:42:27;43.42;;;16.08;;
77109;SDS011;66062;52.464;16.922;2024-01-30T00:44:53;41.85;;;16.45;;
77109;SDS011;66062;52.464;16.922;2024-01-30T00:47:18;35.03;;;15.90;;
77109;SDS011;66062;52.464;16.922;2024-01-30T00:49:44;32.53;;;15.27;;
77109;SDS011;66062;52.464;16.922;2024-01-30T00:52:09;42.00;;;17.77;;
77109;SDS011;66062;52.464;16.922;2024-01-30T00:54:35;42.22;;;15.98;;
77109;SDS011;66062;52.464;16.922;2024-01-30T00:57:00;34.83;;;15.40;;
77109;SDS011;66062;52.464;16.922;2024-01-30T00:59:26;40.33;;;16.20;;
77109;SDS011;66062;52.464;16.922;2024-01-30T01:01:51;37.47;;;16.80;;
77109;SDS011;66062;52.464;16.922;2024-01-30T01:04:17;40.53;;;17.10;;
77109;SDS011;66062;52.464;16.922;2024-01-30T01:06:43;36.40;;;15.88;;
77109;SDS011;66062;52.464;16.922;2024-01-30T01:09:10;34.00;;;15.60;;
77109;SDS011;66062;52.464;16.922;2024-01-30T01:11:36;39.80;;;18.38;;
77109;SDS011;66062;52.464;16.922;2024-01-30T01:14:03;42.22;;;18.02;;
77109;SDS011;66062;52.464;16.922;2024-01-30T01:16:29;36.75;;;16.30;;
77109;SDS011;66062;52.464;16.922;2024-01-30T01:18:54;40.15;;;15.90;;
77109;SDS011;66062;52.464;16.922;2024-01-30T01:21:20;34.90;;;15.40;;
77109;SDS011;66062;52.464;16.922;2024-01-30T01:23:45;32.83;;;15.15;;
77109;SDS011;66062;52.464;16.922;2024-01-30T01:26:11;36.95;;;16.55;;
77109;SDS011;66062;52.464;16.922;2024-01-30T01:28:36;38.83;;;15.90;;
77109;SDS011;66062;52.464;16.922;2024-01-30T01:31:02;42.35;;;16.60;;
77109;SDS011;66062;52.464;16.922;2024-01-30T01:33:33;35.88;;;16.20;;
77109;SDS011;66062;52.464;16.922;2024-01-30T01:35:59;36.15;;;16.83;;
77109;SDS011;66062;52.464;16.922;2024-01-30T01:38:27;34.53;;;16.67;;
77109;SDS011;66062;52.464;16.922;2024-01-30T01:40:53;32.70;;;15.55;;
77109;SDS011;66062;52.464;16.922;2024-01-30T01:43:18;35.30;;;15.65;;
77109;SDS011;66062;52.464;16.922;2024-01-30T01:45:44;35.53;;;15.80;;
77109;SDS011;66062;52.464;16.922;2024-01-30T01:48:10;34.78;;;15.43;;
77109;SDS011;66062;52.464;16.922;2024-01-30T01:50:37;39.88;;;15.15;;
77109;SDS011;66062;52.464;16.922;2024-01-30T01:53:03;35.03;;;16.77;;
77109;SDS011;66062;52.464;16.922;2024-01-30T01:55:32;34.15;;;16.33;;
77109;SDS011;66062;52.464;16.922;2024-01-30T01:57:59;34.60;;;15.27;;
77109;SDS011;66062;52.464;16.922;2024-01-30T02:00:24;36.42;;;15.90;;
77109;SDS011;66062;52.464;16.922;2024-01-30T02:02:50;40.70;;;16.58;;
77109;SDS011;66062;52.464;16.922;2024-01-30T02:05:16;44.58;;;18.92;;
77109;SDS011;66062;52.464;16.922;2024-01-30T02:07:43;37.42;;;18.13;;
77109;SDS011;66062;52.464;16.922;2024-01-30T02:10:09;40.85;;;16.50;;
77109;SDS011;66062;52.464;16.922;2024-01-30T02:12:35;37.15;;;15.90;;
77109;SDS011;66062;52.464;16.922;2024-01-30T02:15:00;37.00;;;16.48;;
77109;SDS011;66062;52.464;16.922;2024-01-30T02:17:26;39.65;;;16.77;;
77109;SDS011;66062;52.464;16.922;2024-01-30T02:19:52;37.15;;;14.30;;
77109;SDS011;66062;52.464;16.922;2024-01-30T02:22:17;36.03;;;14.13;;
77109;SDS011;66062;52.464;16.922;2024-01-30T02:24:44;37.22;;;15.32;;
77109;SDS011;66062;52.464;16.922;2024-01-30T02:27:10;32.53;;;14.95;;
77109;SDS011;66062;52.464;16.922;2024-01-30T02:29:35;30.38;;;14.40;;
77109;SDS011;66062;52.464;16.922;2024-01-30T02:32:01;29.92;;;13.98;;
77109;SDS011;66062;52.464;16.922;2024-01-30T02:34:26;35.78;;;15.32;;
77109;SDS011;66062;52.464;16.922;2024-01-30T02:36:51;38.47;;;14.75;;
77109;SDS011;66062;52.464;16.922;2024-01-30T02:39:17;38.10;;;14.90;;
77109;SDS011;66062;52.464;16.922;2024-01-30T02:41:42;31.95;;;14.18;;
77109;SDS011;66062;52.464;16.922;2024-01-30T02:44:08;32.40;;;13.70;;
77109;SDS011;66062;52.464;16.922;2024-01-30T02:46:33;35.90;;;14.35;;
77109;SDS011;66062;52.464;16.922;2024-01-30T02:48:58;37.10;;;15.00;;
77109;SDS011;66062;52.464;16.922;2024-01-30T02:51:24;37.88;;;15.68;;
77109;SDS011;66062;52.464;16.922;2024-01-30T02:53:49;34.05;;;15.75;;
77109;SDS011;66062;52.464;16.922;2024-01-30T02:56:15;37.53;;;15.05;;
77109;SDS011;66062;52.464;16.922;2024-01-30T02:58:40;40.67;;;14.85;;
77109;SDS011;66062;52.464;16.922;2024-01-30T03:01:06;32.50;;;13.15;;
77109;SDS011;66062;52.464;16.922;2024-01-30T03:03:32;30.13;;;13.88;;
77109;SDS011;66062;52.464;16.922;2024-01-30T03:05:59;30.17;;;15.05;;
77109;SDS011;66062;52.464;16.922;2024-01-30T03:08:24;29.83;;;14.10;;
77109;SDS011;66062;52.464;16.922;2024-01-30T03:10:49;31.40;;;14.48;;
77109;SDS011;66062;52.464;16.922;2024-01-30T03:13:15;30.40;;;13.27;;
77109;SDS011;66062;52.464;16.922;2024-01-30T03:15:40;33.85;;;12.82;;
77109;SDS011;66062;52.464;16.922;2024-01-30T03:18:06;27.90;;;12.55;;
77109;SDS011;66062;52.464;16.922;2024-01-30T03:20:31;28.83;;;11.93;;
77109;SDS011;66062;52.464;16.922;2024-01-30T03:22:57;31.55;;;13.25;;
77109;SDS011;66062;52.464;16.922;2024-01-30T03:25:22;30.38;;;12.30;;
77109;SDS011;66062;52.464;16.922;2024-01-30T03:27:48;27.48;;;12.10;;
77109;SDS011;66062;52.464;16.922;2024-01-30T03:30:14;32.13;;;13.68;;
77109;SDS011;66062;52.464;16.922;2024-01-30T03:32:39;27.48;;;12.43;;
77109;SDS011;66062;52.464;16.922;2024-01-30T03:35:05;30.75;;;12.25;;
77109;SDS011;66062;52.464;16.922;2024-01-30T03:37:30;30.42;;;13.40;;
77109;SDS011;66062;52.464;16.922;2024-01-30T03:39:56;31.00;;;13.07;;
77109;SDS011;66062;52.464;16.922;2024-01-30T03:42:21;25.73;;;11.65;;
77109;SDS011;66062;52.464;16.922;2024-01-30T03:44:47;29.08;;;11.38;;
77109;SDS011;66062;52.464;16.922;2024-01-30T03:47:13;28.98;;;12.00;;
77109;SDS011;66062;52.464;16.922;2024-01-30T03:49:38;28.45;;;12.30;;
77109;SDS011;66062;52.464;16.922;2024-01-30T03:52:04;33.20;;;13.90;;
77109;SDS011;66062;52.464;16.922;2024-01-30T03:54:30;28.23;;;13.30;;
77109;SDS011;66062;52.464;16.922;2024-01-30T03:56:55;29.25;;;13.20;;
77109;SDS011;66062;52.464;16.922;2024-01-30T03:59:21;29.27;;;14.02;;
77109;SDS011;66062;52.464;16.922;2024-01-30T04:01:49;31.73;;;12.70;;
77109;SDS011;66062;52.464;16.922;2024-01-30T04:06:42;30.83;;;13.25;;
77109;SDS011;66062;52.464;16.922;2024-01-30T04:09:08;33.03;;;13.23;;
77109;SDS011;66062;52.464;16.922;2024-01-30T04:11:33;30.42;;;12.93;;
77109;SDS011;66062;52.464;16.922;2024-01-30T04:13:59;30.90;;;12.73;;
77109;SDS011;66062;52.464;16.922;2024-01-30T04:16:24;25.50;;;13.38;;
77109;SDS011;66062;52.464;16.922;2024-01-30T04:18:50;25.10;;;11.77;;
77109;SDS011;66062;52.464;16.922;2024-01-30T04:21:16;31.70;;;12.35;;
77109;SDS011;66062;52.464;16.922;2024-01-30T04:23:42;32.63;;;13.90;;
77109;SDS011;66062;52.464;16.922;2024-01-30T04:26:07;29.23;;;13.00;;
77109;SDS011;66062;52.464;16.922;2024-01-30T04:28:33;33.03;;;14.07;;
77109;SDS011;66062;52.464;16.922;2024-01-30T04:30:58;26.70;;;12.02;;
77109;SDS011;66062;52.464;16.922;2024-01-30T04:33:24;32.50;;;13.40;;
77109;SDS011;66062;52.464;16.922;2024-01-30T04:35:49;31.77;;;11.50;;
77109;SDS011;66062;52.464;16.922;2024-01-30T04:38:15;29.52;;;13.77;;
77109;SDS011;66062;52.464;16.922;2024-01-30T04:40:40;29.15;;;12.95;;
77109;SDS011;66062;52.464;16.922;2024-01-30T04:43:06;34.28;;;13.23;;
77109;SDS011;66062;52.464;16.922;2024-01-30T04:45:31;28.73;;;12.85;;
77109;SDS011;66062;52.464;16.922;2024-01-30T04:47:57;31.30;;;13.00;;
77109;SDS011;66062;52.464;16.922;2024-01-30T04:50:23;31.08;;;12.80;;
77109;SDS011;66062;52.464;16.922;2024-01-30T04:52:48;34.53;;;13.45;;
77109;SDS011;66062;52.464;16.922;2024-01-30T04:55:14;32.53;;;12.65;;
77109;SDS011;66062;52.464;16.922;2024-01-30T04:57:40;27.35;;;13.20;;
77109;SDS011;66062;52.464;16.922;2024-01-30T05:00:05;36.70;;;13.00;;
77109;SDS011;66062;52.464;16.922;2024-01-30T05:02:31;29.17;;;12.65;;
77109;SDS011;66062;52.464;16.922;2024-01-30T05:04:57;35.80;;;13.38;;
77109;SDS011;66062;52.464;16.922;2024-01-30T05:07:24;36.88;;;13.70;;
77109;SDS011;66062;52.464;16.922;2024-01-30T05:09:50;32.00;;;13.00;;
77109;SDS011;66062;52.464;16.922;2024-01-30T05:12:15;29.20;;;13.15;;
77109;SDS011;66062;52.464;16.922;2024-01-30T05:14:41;30.35;;;12.15;;
77109;SDS011;66062;52.464;16.922;2024-01-30T05:17:06;34.40;;;12.07;;
77109;SDS011;66062;52.464;16.922;2024-01-30T05:19:34;29.73;;;13.48;;
77109;SDS011;66062;52.464;16.922;2024-01-30T05:21:59;31.63;;;12.23;;
77109;SDS011;66062;52.464;16.922;2024-01-30T05:24:25;31.05;;;12.82;;
77109;SDS011;66062;52.464;16.922;2024-01-30T05:26:50;26.75;;;12.27;;
77109;SDS011;66062;52.464;16.922;2024-01-30T05:29:16;23.42;;;10.85;;
77109;SDS011;66062;52.464;16.922;2024-01-30T05:31:42;26.77;;;12.40;;
77109;SDS011;66062;52.464;16.922;2024-01-30T05:34:07;25.45;;;12.20;;
77109;SDS011;66062;52.464;16.922;2024-01-30T05:36:34;30.20;;;12.73;;
77109;SDS011;66062;52.464;16.922;2024-01-30T05:38:59;32.03;;;12.50;;
77109;SDS011;66062;52.464;16.922;2024-01-30T05:41:25;27.25;;;12.82;;
77109;SDS011;66062;52.464;16.922;2024-01-30T05:43:50;32.70;;;12.93;;
77109;SDS011;66062;52.464;16.922;2024-01-30T05:46:16;32.92;;;13.27;;
77109;SDS011;66062;52.464;16.922;2024-01-30T05:48:41;29.38;;;11.32;;
77109;SDS011;66062;52.464;16.922;2024-01-30T05:51:07;32.67;;;13.77;;
77109;SDS011;66062;52.464;16.922;2024-01-30T05:53:33;33.45;;;13.60;;
77109;SDS011;66062;52.464;16.922;2024-01-30T05:56:00;33.70;;;13.85;;
77109;SDS011;66062;52.464;16.922;2024-01-30T05:58:26;26.50;;;12.13;;
77109;SDS011;66062;52.464;16.922;2024-01-30T06:00:52;30.08;;;12.40;;
77109;SDS011;66062;52.464;16.922;2024-01-30T06:03:17;26.98;;;12.90;;
77109;SDS011;66062;52.464;16.922;2024-01-30T06:05:42;29.48;;;12.35;;
77109;SDS011;66062;52.464;16.922;2024-01-30T06:08:08;30.90;;;13.05;;
77109;SDS011;66062;52.464;16.922;2024-01-30T06:10:33;29.55;;;12.27;;
77109;SDS011;66062;52.464;16.922;2024-01-30T06:12:59;33.75;;;13.70;;
77109;SDS011;66062;52.464;16.922;2024-01-30T06:15:25;26.73;;;12.20;;
77109;SDS011;66062;52.464;16.922;2024-01-30T06:17:51;25.88;;;11.68;;
77109;SDS011;66062;52.464;16.922;2024-01-30T06:20:16;28.60;;;12.30;;
77109;SDS011;66062;52.464;16.922;2024-01-30T06:22:41;27.33;;;11.50;;
77109;SDS011;66062;52.464;16.922;2024-01-30T06:25:07;26.67;;;11.65;;
77109;SDS011;66062;52.464;16.922;2024-01-30T06:27:33;26.65;;;11.75;;
77109;SDS011;66062;52.464;16.922;2024-01-30T06:29:58;25.02;;;10.93;;
77109;SDS011;66062;52.464;16.922;2024-01-30T06:32:23;32.10;;;12.63;;
77109;SDS011;66062;52.464;16.922;2024-01-30T06:34:49;25.13;;;11.18;;
77109;SDS011;66062;52.464;16.922;2024-01-30T06:37:15;27.17;;;12.90;;
77109;SDS011;66062;52.464;16.922;2024-01-30T06:39:40;29.00;;;11.73;;
77109;SDS011;66062;52.464;16.922;2024-01-30T06:42:06;27.20;;;11.10;;
77109;SDS011;66062;52.464;16.922;2024-01-30T06:44:31;36.22;;;11.90;;
77109;SDS011;66062;52.464;16.922;2024-01-30T06:46:56;25.23;;;10.82;;
77109;SDS011;66062;52.464;16.922;2024-01-30T06:49:22;25.38;;;11.20;;
77109;SDS011;66062;52.464;16.922;2024-01-30T06:51:47;27.77;;;12.35;;
77109;SDS011;66062;52.464;16.922;2024-01-30T06:54:13;31.60;;;13.23;;
77109;SDS011;66062;52.464;16.922;2024-01-30T06:56:38;28.25;;;12.60;;
77109;SDS011;66062;52.464;16.922;2024-01-30T06:59:04;28.67;;;13.02;;
77109;SDS011;66062;52.464;16.922;2024-01-30T07:01:30;28.50;;;12.70;;
77109;SDS011;66062;52.464;16.922;2024-01-30T07:03:56;25.17;;;12.80;;
77109;SDS011;66062;52.464;16.922;2024-01-30T07:06:22;29.30;;;12.20;;
77109;SDS011;66062;52.464;16.922;2024-01-30T07:08:48;26.35;;;11.63;;
77109;SDS011;66062;52.464;16.922;2024-01-30T07:11:20;28.23;;;12.45;;
77109;SDS011;66062;52.464;16.922;2024-01-30T07:13:50;32.47;;;12.50;;
77109;SDS011;66062;52.464;16.922;2024-01-30T07:16:16;26.08;;;12.00;;
77109;SDS011;66062;52.464;16.922;2024-01-30T07:18:42;30.00;;;12.95;;
77109;SDS011;66062;52.464;16.922;2024-01-30T07:21:08;28.63;;;12.80;;
77109;SDS011;66062;52.464;16.922;2024-01-30T07:23:34;24.77;;;11.40;;
77109;SDS011;66062;52.464;16.922;2024-01-30T07:26:00;24.02;;;11.90;;
77109;SDS011;66062;52.464;16.922;2024-01-30T07:28:26;32.30;;;13.23;;
77109;SDS011;66062;52.464;16.922;2024-01-30T07:30:52;36.90;;;12.95;;
77109;SDS011;66062;52.464;16.922;2024-01-30T07:33:17;33.17;;;12.90;;
77109;SDS011;66062;52.464;16.922;2024-01-30T07:35:43;32.13;;;13.02;;
77109;SDS011;66062;52.464;16.922;2024-01-30T07:38:08;25.10;;;13.00;;
77109;SDS011;66062;52.464;16.922;2024-01-30T07:40:34;33.53;;;12.98;;
77109;SDS011;66062;52.464;16.922;2024-01-30T07:42:59;29.77;;;13.40;;
77109;SDS011;66062;52.464;16.922;2024-01-30T07:45:26;37.22;;;14.23;;
77109;SDS011;66062;52.464;16.922;2024-01-30T07:47:52;38.47;;;13.52;;
77109;SDS011;66062;52.464;16.922;2024-01-30T07:50:18;31.35;;;12.43;;
77109;SDS011;66062;52.464;16.922;2024-01-30T07:52:44;28.65;;;11.57;;
77109;SDS011;66062;52.464;16.922;2024-01-30T07:55:09;30.42;;;12.27;;
77109;SDS011;66062;52.464;16.922;2024-01-30T07:57:35;35.45;;;13.35;;
77109;SDS011;66062;52.464;16.922;2024-01-30T08:00:04;32.53;;;13.32;;
77109;SDS011;66062;52.464;16.922;2024-01-30T08:02:30;29.48;;;12.68;;
77109;SDS011;66062;52.464;16.922;2024-01-30T08:04:56;28.42;;;11.63;;
77109;SDS011;66062;52.464;16.922;2024-01-30T08:07:21;26.90;;;11.90;;
77109;SDS011;66062;52.464;16.922;2024-01-30T08:09:47;30.98;;;13.07;;
77109;SDS011;66062;52.464;16.922;2024-01-30T08:12:13;23.90;;;11.60;;
77109;SDS011;66062;52.464;16.922;2024-01-30T08:14:38;25.63;;;12.13;;
77109;SDS011;66062;52.464;16.922;2024-01-30T08:19:34;31.38;;;10.88;;
77109;SDS011;66062;52.464;16.922;2024-01-30T08:21:59;23.73;;;10.93;;
77109;SDS011;66062;52.464;16.922;2024-01-30T08:24:25;25.88;;;10.93;;
77109;SDS011;66062;52.464;16.922;2024-01-30T08:26:50;33.65;;;12.13;;
77109;SDS011;66062;52.464;16.922;2024-01-30T08:29:16;27.70;;;11.85;;
77109;SDS011;66062;52.464;16.922;2024-01-30T08:31:41;26.90;;;10.05;;
77109;SDS011;66062;52.464;16.922;2024-01-30T08:34:07;21.85;;;9.20;;
77109;SDS011;66062;52.464;16.922;2024-01-30T08:36:32;28.20;;;11.38;;
77109;SDS011;66062;52.464;16.922;2024-01-30T08:38:58;33.53;;;11.25;;
77109;SDS011;66062;52.464;16.922;2024-01-30T08:41:23;24.63;;;11.82;;
77109;SDS011;66062;52.464;16.922;2024-01-30T08:43:49;29.35;;;11.88;;
77109;SDS011;66062;52.464;16.922;2024-01-30T08:46:17;27.08;;;11.73;;
77109;SDS011;66062;52.464;16.922;2024-01-30T08:48:43;28.02;;;12.63;;
77109;SDS011;66062;52.464;16.922;2024-01-30T08:51:09;26.83;;;10.65;;
77109;SDS011;66062;52.464;16.922;2024-01-30T08:53:35;23.35;;;10.48;;
77109;SDS011;66062;52.464;16.922;2024-01-30T08:56:01;21.25;;;9.82;;
77109;SDS011;66062;52.464;16.922;2024-01-30T08:58:27;22.58;;;9.85;;
77109;SDS011;66062;52.464;16.922;2024-01-30T09:00:53;24.73;;;11.23;;
77109;SDS011;66062;52.464;16.922;2024-01-30T09:03:18;20.08;;;10.02;;
77109;SDS011;66062;52.464;16.922;2024-01-30T09:05:44;22.60;;;10.50;;
77109;SDS011;66062;52.464;16.922;2024-01-30T09:08:09;27.42;;;11.27;;
77109;SDS011;66062;52.464;16.922;2024-01-30T09:10:35;20.95;;;9.63;;
77109;SDS011;66062;52.464;16.922;2024-01-30T09:13:00;18.95;;;9.73;;
77109;SDS011;66062;52.464;16.922;2024-01-30T09:15:26;26.20;;;9.65;;
77109;SDS011;66062;52.464;16.922;2024-01-30T09:17:51;22.17;;;10.35;;
77109;SDS011;66062;52.464;16.922;2024-01-30T09:20:17;23.90;;;10.80;;
77109;SDS011;66062;52.464;16.922;2024-01-30T09:22:42;22.85;;;9.93;;
77109;SDS011;66062;52.464;16.922;2024-01-30T09:25:07;20.88;;;9.48;;
77109;SDS011;66062;52.464;16.922;2024-01-30T09:27:33;20.98;;;9.07;;
77109;SDS011;66062;52.464;16.922;2024-01-30T09:29:59;22.88;;;10.13;;
77109;SDS011;66062;52.464;16.922;2024-01-30T09:32:24;29.23;;;11.05;;
77109;SDS011;66062;52.464;16.922;2024-01-30T09:34:50;22.85;;;10.65;;
77109;SDS011;66062;52.464;16.922;2024-01-30T09:37:15;20.80;;;9.85;;
77109;SDS011;66062;52.464;16.922;2024-01-30T09:39:43;23.70;;;10.32;;
77109;SDS011;66062;52.464;16.922;2024-01-30T09:45:02;21.08;;;9.77;;
77109;SDS011;66062;52.464;16.922;2024-01-30T09:47:32;21.27;;;10.55;;
77109;SDS011;66062;52.464;16.922;2024-01-30T09:50:17;28.52;;;10.93;;
77109;SDS011;66062;52.464;16.922;2024-01-30T09:52:47;22.88;;;10.65;;
77109;SDS011;66062;52.464;16.922;2024-01-30T09:55:15;31.38;;;11.10;;
77109;SDS011;66062;52.464;16.922;2024-01-30T09:57:41;25.65;;;10.77;;
77109;SDS011;66062;52.464;16.922;2024-01-30T10:00:07;21.60;;;10.65;;
77109;SDS011;66062;52.464;16.922;2024-01-30T10:02:34;27.65;;;11.40;;
77109;SDS011;66062;52.464;16.922;2024-01-30T10:05:00;35.50;;;12.30;;
77109;SDS011;66062;52.464;16.922;2024-01-30T10:07:26;22.95;;;11.80;;
77109;SDS011;66062;52.464;16.922;2024-01-30T10:09:52;26.00;;;12.48;;
77109;SDS011;66062;52.464;16.922;2024-01-30T10:12:22;26.13;;;11.65;;
77109;SDS011;66062;52.464;16.922;2024-01-30T10:14:50;27.88;;;11.43;;
77109;SDS011;66062;52.464;16.922;2024-01-30T10:17:16;25.48;;;11.75;;
77109;SDS011;66062;52.464;16.922;2024-01-30T10:19:41;26.75;;;11.55;;
77109;SDS011;66062;52.464;16.922;2024-01-30T10:22:07;30.17;;;11.90;;
77109;SDS011;66062;52.464;16.922;2024-01-30T10:24:34;24.02;;;10.85;;
77109;SDS011;66062;52.464;16.922;2024-01-30T10:27:00;23.42;;;10.98;;
77109;SDS011;66062;52.464;16.922;2024-01-30T10:29:26;20.35;;;11.05;;
77109;SDS011;66062;52.464;16.922;2024-01-30T10:34:25;26.40;;;10.88;;
77109;SDS011;66062;52.464;16.922;2024-01-30T10:36:51;24.52;;;10.10;;
77109;SDS011;66062;52.464;16.922;2024-01-30T10:39:25;19.13;;;10.50;;
77109;SDS011;66062;52.464;16.922;2024-01-30T10:41:58;23.02;;;10.30;;
77109;SDS011;66062;52.464;16.922;2024-01-30T10:44:28;25.08;;;10.00;;
77109;SDS011;66062;52.464;16.922;2024-01-30T10:47:00;25.20;;;9.82;;
77109;SDS011;66062;52.464;16.922;2024-01-30T10:49:31;22.60;;;9.15;;
77109;SDS011;66062;52.464;16.922;2024-01-30T10:51:57;18.88;;;9.30;;
77109;SDS011;66062;52.464;16.922;2024-01-30T10:54:23;19.98;;;9.23;;
77109;SDS011;66062;52.464;16.922;2024-01-30T10:56:51;20.80;;;8.75;;
77109;SDS011;66062;52.464;16.922;2024-01-30T10:59:18;15.30;;;8.45;;
77109;SDS011;66062;52.464;16.922;2024-01-30T11:01:46;16.23;;;8.15;;
77109;SDS011;66062;52.464;16.922;2024-01-30T11:04:11;17.08;;;8.75;;
77109;SDS011;66062;52.464;16.922;2024-01-30T11:06:41;14.02;;;7.80;;
77109;SDS011;66062;52.464;16.922;2024-01-30T11:09:11;18.98;;;8.18;;
77109;SDS011;66062;52.464;16.922;2024-01-30T11:14:32;20.42;;;8.18;;
77109;SDS011;66062;52.464;16.922;2024-01-30T11:16:58;14.00;;;8.02;;
77109;SDS011;66062;52.464;16.922;2024-01-30T11:19:25;19.60;;;9.15;;
77109;SDS011;66062;52.464;16.922;2024-01-30T11:24:22;18.05;;;8.07;;
77109;SDS011;66062;52.464;16.922;2024-01-30T11:27:00;16.40;;;7.88;;
77109;SDS011;66062;52.464;16.922;2024-01-30T11:29:49;18.63;;;8.13;;
77109;SDS011;66062;52.464;16.922;2024-01-30T11:32:16;18.83;;;8.48;;
77109;SDS011;66062;52.464;16.922;2024-01-30T11:34:49;19.58;;;8.75;;
77109;SDS011;66062;52.464;16.922;2024-01-30T11:37:14;19.50;;;8.48;;
77109;SDS011;66062;52.464;16.922;2024-01-30T11:39:41;20.10;;;9.65;;
77109;SDS011;66062;52.464;16.922;2024-01-30T11:42:09;17.25;;;8.95;;
77109;SDS011;66062;52.464;16.922;2024-01-30T11:44:36;17.27;;;8.68;;
77109;SDS011;66062;52.464;16.922;2024-01-30T11:47:02;21.98;;;10.30;;
77109;SDS011;66062;52.464;16.922;2024-01-30T11:49:28;17.23;;;8.85;;
77109;SDS011;66062;52.464;16.922;2024-01-30T11:51:54;17.80;;;7.85;;
77109;SDS011;66062;52.464;16.922;2024-01-30T11:54:19;16.40;;;8.50;;
77109;SDS011;66062;52.464;16.922;2024-01-30T11:56:45;19.13;;;8.95;;
77109;SDS011;66062;52.464;16.922;2024-01-30T11:59:10;19.50;;;8.77;;
77109;SDS011;66062;52.464;16.922;2024-01-30T12:01:36;21.42;;;8.93;;
77109;SDS011;66062;52.464;16.922;2024-01-30T12:04:02;18.15;;;8.23;;
77109;SDS011;66062;52.464;16.922;2024-01-30T12:06:28;19.25;;;8.80;;
77109;SDS011;66062;52.464;16.922;2024-01-30T12:09:00;21.13;;;8.63;;
77109;SDS011;66062;52.464;16.922;2024-01-30T12:11:47;16.52;;;8.80;;
77109;SDS011;66062;52.464;16.922;2024-01-30T12:14:13;16.45;;;8.52;;
77109;SDS011;66062;52.464;16.922;2024-01-30T12:16:40;17.70;;;9.15;;
77109;SDS011;66062;52.464;16.922;2024-01-30T12:19:06;26.05;;;9.52;;
77109;SDS011;66062;52.464;16.922;2024-01-30T12:21:33;20.30;;;9.02;;
77109;SDS011;66062;52.464;16.922;2024-01-30T12:23:59;18.10;;;8.77;;
77109;SDS011;66062;52.464;16.922;2024-01-30T12:26:25;19.60;;;9.35;;
77109;SDS011;66062;52.464;16.922;2024-01-30T12:28:53;17.60;;;8.80;;
77109;SDS011;66062;52.464;16.922;2024-01-30T12:31:31;19.88;;;9.48;;
77109;SDS011;66062;52.464;16.922;2024-01-30T12:33:59;25.10;;;8.50;;
77109;SDS011;66062;52.464;16.922;2024-01-30T12:36:25;16.95;;;9.57;;
77109;SDS011;66062;52.464;16.922;2024-01-30T12:38:51;21.15;;;8.60;;
77109;SDS011;66062;52.464;16.922;2024-01-30T12:41:16;17.42;;;8.73;;
77109;SDS011;66062;52.464;16.922;2024-01-30T12:43:42;22.13;;;9.00;;
77109;SDS011;66062;52.464;16.922;2024-01-30T12:46:08;15.43;;;8.38;;
77109;SDS011;66062;52.464;16.922;2024-01-30T12:48:35;20.80;;;9.05;;
77109;SDS011;66062;52.464;16.922;2024-01-30T12:51:00;17.75;;;8.02;;
77109;SDS011;66062;52.464;16.922;2024-01-30T12:53:26;18.85;;;8.68;;
77109;SDS011;66062;52.464;16.922;2024-01-30T12:55:52;20.83;;;10.35;;
77109;SDS011;66062;52.464;16.922;2024-01-30T12:58:19;17.98;;;8.90;;
77109;SDS011;66062;52.464;16.922;2024-01-30T13:00:45;17.80;;;9.20;;
77109;SDS011;66062;52.464;16.922;2024-01-30T13:03:10;21.65;;;8.02;;
77109;SDS011;66062;52.464;16.922;2024-01-30T13:05:36;18.48;;;9.20;;
77109;SDS011;66062;52.464;16.922;2024-01-30T13:08:02;17.70;;;8.13;;
77109;SDS011;66062;52.464;16.922;2024-01-30T13:10:28;19.17;;;9.07;;
77109;SDS011;66062;52.464;16.922;2024-01-30T13:12:53;15.20;;;8.40;;
77109;SDS011;66062;52.464;16.922;2024-01-30T13:15:19;16.85;;;8.63;;
77109;SDS011;66062;52.464;16.922;2024-01-30T13:17:45;18.48;;;8.52;;
77109;SDS011;66062;52.464;16.922;2024-01-30T13:20:13;19.85;;;8.90;;
77109;SDS011;66062;52.464;16.922;2024-01-30T13:22:42;17.77;;;9.00;;
77109;SDS011;66062;52.464;16.922;2024-01-30T13:25:08;18.90;;;8.57;;
77109;SDS011;66062;52.464;16.922;2024-01-30T13:27:34;21.30;;;9.07;;
77109;SDS011;66062;52.464;16.922;2024-01-30T13:29:59;16.35;;;7.82;;
77109;SDS011;66062;52.464;16.922;2024-01-30T13:32:25;22.58;;;9.07;;
77109;SDS011;66062;52.464;16.922;2024-01-30T13:34:51;17.27;;;9.15;;
77109;SDS011;66062;52.464;16.922;2024-01-30T13:37:16;23.00;;;10.27;;
77109;SDS011;66062;52.464;16.922;2024-01-30T13:39:42;18.17;;;9.15;;
77109;SDS011;66062;52.464;16.922;2024-01-30T13:42:07;18.35;;;9.30;;
77109;SDS011;66062;52.464;16.922;2024-01-30T13:44:35;18.92;;;10.10;;
77109;SDS011;66062;52.464;16.922;2024-01-30T13:47:00;19.33;;;9.35;;
77109;SDS011;66062;52.464;16.922;2024-01-30T13:49:26;19.85;;;9.15;;
77109;SDS011;66062;52.464;16.922;2024-01-30T13:51:52;23.75;;;9.88;;
77109;SDS011;66062;52.464;16.922;2024-01-30T13:54:17;18.92;;;8.85;;
77109;SDS011;66062;52.464;16.922;2024-01-30T13:56:43;18.17;;;9.45;;
77109;SDS011;66062;52.464;16.922;2024-01-30T13:59:08;19.65;;;9.05;;
77109;SDS011;66062;52.464;16.922;2024-01-30T14:01:34;20.65;;;8.93;;
77109;SDS011;66062;52.464;16.922;2024-01-30T14:03:59;20.98;;;9.88;;
77109;SDS011;66062;52.464;16.922;2024-01-30T14:06:24;23.00;;;10.55;;
77109;SDS011;66062;52.464;16.922;2024-01-30T14:08:50;25.00;;;10.25;;
77109;SDS011;66062;52.464;16.922;2024-01-30T14:11:15;22.50;;;10.30;;
77109;SDS011;66062;52.464;16.922;2024-01-30T14:13:40;28.77;;;11.77;;
77109;SDS011;66062;52.464;16.922;2024-01-30T14:16:06;20.15;;;10.60;;
77109;SDS011;66062;52.464;16.922;2024-01-30T14:18:32;27.23;;;10.38;;
77109;SDS011;66062;52.464;16.922;2024-01-30T14:20:57;25.77;;;10.73;;